createdAt,value
2018-01-17T00:00:40.755Z,98844.66
2018-01-17T00:03:11.084Z,98829.77
2018-01-17T00:05:41.680Z,98831.23
2018-01-17T00:08:14.004Z,98834.03
2018-01-17T00:10:44.516Z,98829.39
2018-01-17T00:13:14.965Z,98836.91
2018-01-17T00:15:46.286Z,98833.68
2018-01-17T00:18:17.556Z,98837.70
2018-01-17T00:20:48.957Z,98828.41
2018-01-17T00:23:19.773Z,98834.11
2018-01-17T00:25:52.075Z,98837.17
2018-01-17T00:31:23.366Z,98819.13
2018-01-17T00:33:55.241Z,98814.09
2018-01-17T00:36:29.891Z,98803.58
2018-01-17T00:39:02.889Z,98801.96
2018-01-17T00:41:35.499Z,98799.45
2018-01-17T00:44:05.858Z,98798.67
2018-01-17T00:46:37.372Z,98803.80
2018-01-17T00:49:08.414Z,98806.68
2018-01-17T00:51:38.703Z,98815.08
2018-01-17T00:54:15.645Z,98817.91
2018-01-17T00:56:46.148Z,98807.50
2018-01-17T00:59:16.626Z,98809.12
2018-01-17T01:01:50.875Z,98822.10
2018-01-17T01:04:22.986Z,98819.39
2018-01-17T01:06:53.628Z,98820.78
2018-01-17T01:09:24.126Z,98819.20
2018-01-17T01:11:55.898Z,98823.58
2018-01-17T01:14:26.382Z,98814.21
2018-01-17T01:16:57.314Z,98814.39
2018-01-17T01:19:27.760Z,98812.55
2018-01-17T01:21:58.363Z,98814.36
2018-01-17T01:24:28.988Z,98818.52
2018-01-17T01:26:59.807Z,98812.58
2018-01-17T01:29:30.100Z,98821.30
2018-01-17T01:32:15.664Z,98828.03
2018-01-17T01:34:46.142Z,98824.58
2018-01-17T01:37:16.495Z,98824.97
2018-01-17T01:39:46.961Z,98835.25
2018-01-17T01:42:17.854Z,98828.87
2018-01-17T01:44:48.184Z,98827.72
2018-01-17T01:47:19.984Z,98840.01
2018-01-17T01:49:50.723Z,98841.17
2018-01-17T01:52:23.014Z,98845.27
2018-01-17T01:54:53.717Z,98842.00
2018-01-17T01:57:25.024Z,98846.59
2018-01-17T01:59:56.155Z,98838.58
2018-01-17T02:02:26.505Z,98841.14
2018-01-17T02:04:58.126Z,98834.39
2018-01-17T02:07:28.813Z,98839.02
2018-01-17T02:09:59.036Z,98841.46
2018-01-17T02:12:29.651Z,98844.25
2018-01-17T02:15:00.838Z,98871.66
2018-01-17T02:17:38.546Z,98880.86
2018-01-17T02:20:09.734Z,98884.51
2018-01-17T02:22:41.950Z,98887.12
2018-01-17T02:25:13.724Z,98899.89
2018-01-17T02:27:46.898Z,98917.88
2018-01-17T02:30:17.439Z,98897.78
2018-01-17T02:32:47.825Z,98894.86
2018-01-17T02:35:18.165Z,98883.52
2018-01-17T02:37:48.437Z,98860.50
2018-01-17T02:40:51.889Z,98874.52
2018-01-17T02:43:22.184Z,98889.85
2018-01-17T02:45:53.014Z,98902.86
2018-01-17T02:48:23.763Z,98905.25
2018-01-17T02:50:59.500Z,98907.66
2018-01-17T02:53:29.824Z,98907.14
2018-01-17T02:56:00.856Z,98913.21
2018-01-17T02:58:32.108Z,98925.29
2018-01-17T03:01:02.821Z,98927.22
2018-01-17T03:03:33.465Z,98922.19
2018-01-17T03:06:04.041Z,98910.42
2018-01-17T03:08:36.313Z,98918.58
2018-01-17T03:11:08.025Z,98924.35
2018-01-17T03:13:38.575Z,98927.13
2018-01-17T03:16:10.787Z,98924.16
2018-01-17T03:18:41.480Z,98923.20
2018-01-17T03:21:12.784Z,98929.08
2018-01-17T03:23:43.482Z,98924.81
2018-01-17T03:26:13.794Z,98923.27
2018-01-17T03:28:44.450Z,98936.14
2018-01-17T03:31:15.147Z,98965.38
2018-01-17T03:33:45.633Z,98944.52
2018-01-17T03:36:16.388Z,98945.10
2018-01-17T03:38:46.951Z,98942.09
2018-01-17T03:41:17.267Z,98936.77
2018-01-17T03:43:50.077Z,98940.61
2018-01-17T03:46:20.493Z,98938.78
2018-01-17T03:48:50.842Z,98948.30
2018-01-17T03:51:21.321Z,98948.13
2018-01-17T03:53:51.796Z,98962.31
2018-01-17T03:56:22.572Z,98957.13
2018-01-17T03:58:52.846Z,98966.76
2018-01-17T04:01:23.563Z,98964.35
2018-01-17T04:03:54.066Z,98967.47
2018-01-17T04:06:24.261Z,98983.81
2018-01-17T04:08:55.100Z,98975.38
2018-01-17T04:11:25.704Z,98991.65
2018-01-17T04:13:56.382Z,98991.30
2018-01-17T04:16:27.899Z,98982.85
2018-01-17T04:18:58.628Z,98975.14
2018-01-17T04:21:29.847Z,98977.64
2018-01-17T04:24:00.333Z,98954.30
2018-01-17T04:26:31.232Z,98984.71
2018-01-17T04:29:01.996Z,98988.95
2018-01-17T04:31:32.395Z,98983.45
2018-01-17T04:34:03.186Z,98993.13
2018-01-17T04:36:39.411Z,99006.13
2018-01-17T04:39:09.830Z,99004.52
2018-01-17T04:41:41.942Z,99000.25
2018-01-17T04:44:12.681Z,99009.10
2018-01-17T04:46:45.437Z,99036.05
2018-01-17T04:49:17.434Z,99029.17
2018-01-17T04:51:47.917Z,99021.45
2018-01-17T04:54:19.418Z,99016.17
2018-01-17T04:56:51.637Z,99044.05
2018-01-17T04:59:22.164Z,99056.84
2018-01-17T05:01:52.924Z,99042.33
2018-01-17T05:04:24.857Z,99038.66
2018-01-17T05:06:55.485Z,99060.70
2018-01-17T05:09:26.338Z,99056.94
2018-01-17T05:11:56.808Z,99061.70
2018-01-17T05:14:27.224Z,99077.45
2018-01-17T05:16:58.764Z,99087.44
2018-01-17T05:19:29.020Z,99098.10
2018-01-17T05:22:01.061Z,99091.27
2018-01-17T05:24:32.255Z,99112.13
2018-01-17T05:27:03.147Z,99114.70
2018-01-17T05:29:35.788Z,99120.84
2018-01-17T05:32:09.244Z,99126.64
2018-01-17T05:34:41.846Z,99137.81
2018-01-17T05:37:14.192Z,99139.47
2018-01-17T05:39:44.598Z,99143.50
2018-01-17T05:42:16.360Z,99159.31
2018-01-17T05:44:47.487Z,99145.68
2018-01-17T05:47:18.036Z,99149.67
2018-01-17T05:49:50.931Z,99157.02
2018-01-17T05:52:21.274Z,99158.98
2018-01-17T05:54:51.791Z,99160.06
2018-01-17T05:57:22.720Z,99152.69
2018-01-17T05:59:53.568Z,99146.77
2018-01-17T06:02:24.734Z,99162.15
2018-01-17T06:04:55.290Z,99175.17
2018-01-17T06:07:27.376Z,99177.47
2018-01-17T06:09:58.864Z,99181.68
2018-01-17T06:12:29.937Z,99176.86
2018-01-17T06:15:07.196Z,99190.83
2018-01-17T06:17:38.219Z,99183.09
2018-01-17T06:20:09.641Z,99193.20
2018-01-17T06:22:40.681Z,99202.06
2018-01-17T06:25:11.599Z,99214.01
2018-01-17T06:27:42.054Z,99210.62
2018-01-17T06:30:17.560Z,99218.35
2018-01-17T06:32:49.391Z,99226.03
2018-01-17T06:35:20.633Z,99230.00
2018-01-17T06:37:54.175Z,99226.03
2018-01-17T06:40:24.687Z,99241.51
2018-01-17T06:42:55.032Z,99247.37
2018-01-17T06:45:25.875Z,99258.48
2018-01-17T06:47:56.957Z,99254.30
2018-01-17T06:50:29.330Z,99258.58
2018-01-17T06:53:01.117Z,99268.63
2018-01-17T06:56:06.403Z,99267.24
2018-01-17T06:58:38.943Z,99271.86
2018-01-17T07:01:10.168Z,99274.04
2018-01-17T07:03:40.555Z,99284.63
2018-01-17T07:06:11.452Z,99299.17
2018-01-17T07:08:44.405Z,99308.73
2018-01-17T07:13:55.336Z,99323.05
2018-01-17T07:16:28.398Z,99324.69
2018-01-17T07:19:00.532Z,99327.62
2018-01-17T07:21:31.137Z,99329.86
2018-01-17T07:24:02.296Z,99331.92
2018-01-17T07:26:32.739Z,99342.78
2018-01-17T07:29:03.604Z,99350.28
2018-01-17T07:34:07.129Z,99357.29
2018-01-17T07:36:39.711Z,99360.63
2018-01-17T07:39:10.838Z,99373.16
2018-01-17T07:41:48.660Z,99380.26
2018-01-17T07:44:22.272Z,99389.45
2018-01-17T07:46:53.736Z,99400.23
2018-01-17T07:49:25.724Z,99409.73
2018-01-17T07:51:56.063Z,99412.64
2018-01-17T07:54:27.808Z,99420.08
2018-01-17T07:56:59.019Z,99428.48
2018-01-17T07:59:33.763Z,99437.53
2018-01-17T08:02:04.856Z,99445.45
2018-01-17T08:04:36.204Z,99445.91
2018-01-17T08:07:06.563Z,99456.23
2018-01-17T08:09:38.403Z,99450.03
2018-01-17T08:12:09.239Z,99458.78
2018-01-17T08:14:40.737Z,99470.18
2018-01-17T08:17:12.475Z,99475.50
2018-01-17T08:19:43.142Z,99474.33
2018-01-17T08:22:15.142Z,99481.48
2018-01-17T08:24:46.408Z,99484.47
2018-01-17T08:27:17.064Z,99483.33
2018-01-17T08:29:47.907Z,99491.44
2018-01-17T08:32:20.677Z,99496.66
2018-01-17T08:34:51.569Z,99480.03
2018-01-17T08:37:38.846Z,99508.76
2018-01-17T08:40:09.879Z,99520.72
2018-01-17T08:42:40.634Z,99520.34
2018-01-17T08:45:15.580Z,99529.78
2018-01-17T08:47:45.968Z,99535.64
2018-01-17T08:50:17.547Z,99541.31
2018-01-17T08:52:49.149Z,99540.72
2018-01-17T08:55:21.073Z,99529.99
2018-01-17T08:57:55.360Z,99552.22
2018-01-17T09:00:28.659Z,99552.80
2018-01-17T09:02:59.184Z,99551.83
2018-01-17T09:05:31.097Z,99558.71
2018-01-17T09:08:03.296Z,99554.18
2018-01-17T09:10:40.629Z,99565.37
2018-01-17T09:13:12.104Z,99574.33
2018-01-17T09:15:42.562Z,99585.12
2018-01-17T09:18:13.911Z,99586.91
2018-01-17T09:20:45.195Z,99585.27
2018-01-17T09:23:16.797Z,99589.41
2018-01-17T09:25:48.339Z,99584.16
2018-01-17T09:28:18.680Z,99589.76
2018-01-17T09:30:56.589Z,99596.36
2018-01-17T09:33:27.788Z,99615.12
2018-01-17T09:36:01.541Z,99603.52
2018-01-17T09:38:31.836Z,99613.11
2018-01-17T09:41:02.351Z,99609.51
2018-01-17T09:43:34.479Z,99619.44
2018-01-17T09:46:05.458Z,99609.03
2018-01-17T09:48:36.276Z,99614.94
2018-01-17T09:51:07.567Z,99620.96
2018-01-17T09:53:38.041Z,99612.98
2018-01-17T09:56:08.884Z,99627.13
2018-01-17T09:58:39.985Z,99639.92
2018-01-17T10:01:10.534Z,99640.54
2018-01-17T10:03:40.866Z,99649.87
2018-01-17T10:06:11.686Z,99645.07
2018-01-17T10:08:42.334Z,99642.68
2018-01-17T10:11:12.709Z,99649.47
2018-01-17T10:13:43.107Z,99658.25
2018-01-17T10:16:13.993Z,99657.19
2018-01-17T10:18:44.794Z,99675.56
2018-01-17T10:21:16.689Z,99665.13
2018-01-17T10:23:48.147Z,99666.58
2018-01-17T10:26:18.970Z,99673.39
2018-01-17T10:28:49.292Z,99670.23
2018-01-17T10:31:21.221Z,99678.07
2018-01-17T10:33:51.915Z,99685.76
2018-01-17T10:36:23.233Z,99682.05
2018-01-17T10:38:53.686Z,99682.44
2018-01-17T10:41:25.176Z,99683.07
2018-01-17T10:43:55.657Z,99695.66
2018-01-17T10:46:26.782Z,99688.52
2018-01-17T10:48:58.152Z,99697.52
2018-01-17T10:51:44.119Z,99697.39
2018-01-17T10:54:15.047Z,99697.58
2018-01-17T10:56:47.576Z,99695.25
2018-01-17T10:59:18.215Z,99699.56
2018-01-17T11:01:49.239Z,99703.13
2018-01-17T11:04:24.861Z,99694.92
2018-01-17T11:06:59.872Z,99695.47
2018-01-17T11:09:33.529Z,99707.02
2018-01-17T11:12:04.029Z,99702.89
2018-01-17T11:14:37.494Z,99701.55
2018-01-17T11:17:11.541Z,99711.11
2018-01-17T11:19:49.324Z,99695.61
2018-01-17T11:22:21.019Z,99710.25
2018-01-17T11:25:04.369Z,99707.58
2018-01-17T11:27:35.183Z,99714.24
2018-01-17T11:30:08.122Z,99716.84
2018-01-17T11:32:39.158Z,99716.63
2018-01-17T11:35:09.865Z,99713.25
2018-01-17T11:37:41.137Z,99707.17
2018-01-17T11:40:11.432Z,99721.80
2018-01-17T11:42:43.188Z,99722.84
2018-01-17T11:45:17.191Z,99721.53
2018-01-17T11:47:49.312Z,99719.43
2018-01-17T11:50:24.581Z,99737.55
2018-01-17T11:52:55.392Z,99739.61
2018-01-17T11:55:25.764Z,99740.24
2018-01-17T11:57:56.056Z,99750.09
2018-01-17T12:00:31.374Z,99731.12
2018-01-17T12:03:02.759Z,99746.41
2018-01-17T12:05:33.793Z,99747.88
2018-01-17T12:08:06.700Z,99752.36
2018-01-17T12:10:37.497Z,99752.13
2018-01-17T12:13:08.968Z,99754.75
2018-01-17T12:15:40.393Z,99758.88
2018-01-17T12:18:14.199Z,99766.59
2018-01-17T12:20:47.161Z,99732.14
2018-01-17T12:23:18.429Z,99754.55
2018-01-17T12:25:49.169Z,99758.36
2018-01-17T12:28:24.272Z,99756.14
2018-01-17T12:30:54.835Z,99742.68
2018-01-17T12:33:26.438Z,99742.89
2018-01-17T12:35:58.160Z,99766.31
2018-01-17T12:38:29.195Z,99768.98
2018-01-17T12:41:00.088Z,99772.80
2018-01-17T12:43:30.440Z,99776.73
2018-01-17T12:46:01.273Z,99775.80
2018-01-17T12:48:32.298Z,99781.65
2018-01-17T12:51:02.695Z,99767.73
2018-01-17T12:53:33.018Z,99789.39
2018-01-17T12:56:04.073Z,99772.82
2018-01-17T12:58:34.556Z,99768.05
2018-01-17T13:01:05.692Z,99779.87
2018-01-17T13:03:37.967Z,99772.12
2018-01-17T13:06:14.854Z,99773.71
2018-01-17T13:08:50.953Z,99773.48
2018-01-17T13:11:22.216Z,99780.84
2018-01-17T13:13:52.516Z,99776.22
2018-01-17T13:16:23.388Z,99788.84
2018-01-17T13:18:54.022Z,99779.56
2018-01-17T13:21:24.457Z,99773.89
2018-01-17T13:23:57.302Z,99790.19
2018-01-17T13:26:28.081Z,99794.38
2018-01-17T13:28:59.739Z,99798.20
2018-01-17T13:31:31.106Z,99795.16
2018-01-17T13:34:01.549Z,99794.20
2018-01-17T13:36:33.342Z,99800.83
2018-01-17T13:39:08.383Z,99823.67
2018-01-17T13:41:39.370Z,99828.80
2018-01-17T13:44:23.979Z,99842.48
2018-01-17T13:46:56.701Z,99835.98
2018-01-17T13:49:27.803Z,99817.19
2018-01-17T13:51:58.746Z,99830.46
2018-01-17T13:54:31.645Z,99828.98
2018-01-17T13:57:02.775Z,99827.04
2018-01-17T13:59:33.815Z,99827.44
2018-01-17T14:02:04.390Z,99812.68
2018-01-17T14:04:35.599Z,99824.41
2018-01-17T14:07:06.733Z,99864.45
2018-01-17T14:09:37.127Z,99842.63
2018-01-17T14:12:07.703Z,99872.24
2018-01-17T14:14:40.284Z,99892.88
2018-01-17T14:17:12.584Z,99922.47
2018-01-17T14:19:45.161Z,99883.02
2018-01-17T14:22:18.098Z,99902.95
2018-01-17T14:24:48.817Z,99906.23
2018-01-17T14:27:20.545Z,99905.33
2018-01-17T14:29:52.997Z,99922.60
2018-01-17T14:32:23.602Z,99930.19
2018-01-17T14:34:54.600Z,99940.50
2018-01-17T14:37:24.782Z,99942.72
2018-01-17T14:39:55.230Z,99955.14
2018-01-17T14:42:26.125Z,99961.73
2018-01-17T14:44:57.655Z,99955.98
2018-01-17T14:47:42.339Z,99956.92
2018-01-17T14:50:14.110Z,99964.25
2018-01-17T14:52:44.480Z,99967.48
2018-01-17T14:55:16.279Z,99984.70
2018-01-17T14:57:46.957Z,99993.46
2018-01-17T15:00:26.736Z,100000.44
2018-01-17T15:02:57.685Z,100021.23
2018-01-17T15:05:29.382Z,99997.38
2018-01-17T15:10:46.365Z,100016.33
2018-01-17T15:13:20.205Z,100028.89
2018-01-17T15:15:54.897Z,100036.52
2018-01-17T15:18:32.339Z,100031.58
2018-01-17T15:21:04.240Z,100047.86
2018-01-17T15:23:35.957Z,100036.87
2018-01-17T15:26:06.813Z,100042.09
2018-01-17T15:28:38.177Z,100041.34
2018-01-17T15:31:10.029Z,100052.62
2018-01-17T15:33:43.265Z,100059.35
2018-01-17T15:36:16.303Z,100077.95
2018-01-17T15:38:47.494Z,100073.45
2018-01-17T15:41:20.524Z,100082.91
2018-01-17T15:43:52.781Z,100089.03
2018-01-17T15:46:24.413Z,100087.50
2018-01-17T15:48:55.731Z,100091.95
2018-01-17T15:51:27.356Z,100100.98
2018-01-17T15:53:58.915Z,100102.62
2018-01-17T15:56:29.972Z,100103.52
2018-01-17T15:59:01.664Z,100110.08
2018-01-17T16:01:33.775Z,100139.88
2018-01-17T16:04:08.466Z,100123.23
2018-01-17T16:06:40.303Z,100142.73
2018-01-17T16:09:10.893Z,100137.45
2018-01-17T16:11:42.440Z,100141.83
2018-01-17T16:14:13.177Z,100150.13
2018-01-17T16:16:44.964Z,100146.11
2018-01-17T16:19:16.593Z,100155.72
2018-01-17T16:21:51.270Z,100163.27
2018-01-17T16:24:27.686Z,100164.88
2018-01-17T16:27:00.025Z,100174.18
2018-01-17T16:29:31.302Z,100172.86
2018-01-17T16:32:02.982Z,100186.58
2018-01-17T16:34:36.663Z,100187.01
2018-01-17T16:37:07.346Z,100185.96
2018-01-17T16:39:42.406Z,100174.02
2018-01-17T16:42:14.366Z,100191.35
2018-01-17T16:44:56.414Z,100192.98
2018-01-17T16:47:27.614Z,100192.20
2018-01-17T16:49:59.396Z,100192.63
2018-01-17T16:52:31.514Z,100200.81
2018-01-17T16:55:02.675Z,100198.75
2018-01-17T16:57:33.045Z,100211.33
2018-01-17T17:00:07.721Z,100221.95
2018-01-17T17:02:40.157Z,100214.92
2018-01-17T17:05:11.932Z,100224.17
2018-01-17T17:07:42.853Z,100227.23
2018-01-17T17:10:14.551Z,100218.95
2018-01-17T17:12:47.280Z,100215.62
2018-01-17T17:15:25.018Z,100243.73
2018-01-17T17:17:56.020Z,100238.09
2018-01-17T17:20:27.518Z,100247.66
2018-01-17T17:22:57.985Z,100254.37
2018-01-17T17:27:57.422Z,100256.91
2018-01-17T17:30:31.162Z,100251.78
2018-01-17T17:33:03.023Z,100258.64
2018-01-17T17:35:40.684Z,100255.97
2018-01-17T17:38:18.559Z,100250.92
2018-01-17T17:40:50.745Z,100253.23
2018-01-17T17:43:22.588Z,100251.20
2018-01-17T17:45:54.567Z,100263.34
2018-01-17T17:48:26.501Z,100254.05
2018-01-17T17:51:01.776Z,100256.86
2018-01-17T17:53:33.604Z,100259.25
2018-01-17T17:56:06.140Z,100249.93
2018-01-17T17:58:43.701Z,100232.67
2018-01-17T18:01:19.813Z,100249.95
2018-01-17T18:03:51.481Z,100255.18
2018-01-17T18:06:25.007Z,100257.63
2018-01-17T18:08:55.949Z,100258.14
2018-01-17T18:11:26.645Z,100268.69
2018-01-17T18:14:00.509Z,100266.42
2018-01-17T18:16:32.591Z,100276.53
2018-01-17T18:19:05.369Z,100277.39
2018-01-17T18:21:39.757Z,100279.05
2018-01-17T18:24:15.824Z,100284.08
2018-01-17T18:26:46.702Z,100283.25
2018-01-17T18:29:18.119Z,100280.08
2018-01-17T18:31:49.314Z,100285.14
2018-01-17T18:34:19.728Z,100290.23
2018-01-17T18:36:52.309Z,100289.23
2018-01-17T18:39:23.086Z,100270.91
2018-01-17T18:41:56.428Z,100291.64
2018-01-17T18:44:28.685Z,100290.31
2018-01-17T18:47:00.031Z,100292.96
2018-01-17T18:49:30.371Z,100290.80
2018-01-17T18:52:01.051Z,100290.27
2018-01-17T18:54:32.537Z,100295.78
2018-01-17T18:57:03.731Z,100281.44
2018-01-17T18:59:34.610Z,100292.23
2018-01-17T19:02:07.647Z,100289.11
2018-01-17T19:04:39.950Z,100286.52
2018-01-17T19:07:11.087Z,100285.99
2018-01-17T19:09:41.438Z,100290.54
2018-01-17T19:12:12.572Z,100291.10
2018-01-17T19:14:43.227Z,100291.16
2018-01-17T19:17:13.888Z,100294.59
2018-01-17T19:19:44.838Z,100280.45
2018-01-17T19:22:16.337Z,100294.16
2018-01-17T19:27:53.134Z,100299.05
2018-01-17T19:30:23.890Z,100302.95
2018-01-17T19:32:54.334Z,100278.59
2018-01-17T19:35:28.130Z,100291.52
2018-01-17T19:37:58.481Z,100295.34
2018-01-17T19:40:32.411Z,100300.52
2018-01-17T19:43:02.876Z,100301.97
2018-01-17T19:45:34.007Z,100290.50
2018-01-17T19:48:04.891Z,100299.25
2018-01-17T19:50:36.298Z,100297.64
2018-01-17T19:53:07.230Z,100302.51
2018-01-17T19:55:37.782Z,100292.79
2018-01-17T19:58:08.316Z,100294.66
2018-01-17T20:00:45.124Z,100305.23
2018-01-17T20:03:26.254Z,100286.70
2018-01-17T20:05:57.067Z,100293.80
2018-01-17T20:08:29.020Z,100302.52
2018-01-17T20:11:00.235Z,100306.48
2018-01-17T20:13:30.889Z,100303.22
2018-01-17T20:16:02.401Z,100304.67
2018-01-17T20:18:32.958Z,100307.08
2018-01-17T20:21:04.553Z,100269.62
2018-01-17T20:23:38.691Z,100302.52
2018-01-17T20:26:09.718Z,100296.14
2018-01-17T20:28:42.081Z,100298.89
2018-01-17T20:31:14.839Z,100309.73
2018-01-17T20:33:50.213Z,100310.52
2018-01-17T20:36:21.299Z,100319.21
2018-01-17T20:38:51.888Z,100313.16
2018-01-17T20:41:23.844Z,100323.38
2018-01-17T20:44:19.888Z,100315.88
2018-01-17T20:46:50.849Z,100312.86
2018-01-17T20:49:22.003Z,100314.41
2018-01-17T20:51:53.237Z,100308.41
2018-01-17T20:54:24.662Z,100302.98
2018-01-17T20:56:59.002Z,100307.52
2018-01-17T20:59:38.406Z,100303.23
2018-01-17T21:02:10.246Z,100303.03
2018-01-17T21:04:41.087Z,100304.24
2018-01-17T21:07:12.080Z,100295.66
2018-01-17T21:09:44.563Z,100304.19
2018-01-17T21:12:16.107Z,100308.21
2018-01-17T21:14:50.247Z,100316.39
2018-01-17T21:17:22.569Z,100314.40
2018-01-17T21:19:53.332Z,100304.97
2018-01-17T21:22:24.656Z,100316.98
2018-01-17T21:24:56.291Z,100325.12
2018-01-17T21:27:34.008Z,100328.17
2018-01-17T21:30:07.373Z,100337.23
2018-01-17T21:32:39.727Z,100337.44
2018-01-17T21:35:10.744Z,100337.92
2018-01-17T21:37:43.406Z,100340.19
2018-01-17T21:40:14.316Z,100346.22
2018-01-17T21:42:49.018Z,100343.70
2018-01-17T21:45:53.441Z,100347.83
2018-01-17T21:48:23.936Z,100350.48
2018-01-17T21:50:54.898Z,100345.61
2018-01-17T21:53:25.512Z,100344.97
2018-01-17T21:55:56.046Z,100346.52
2018-01-17T21:58:26.418Z,100341.95
2018-01-17T22:00:59.621Z,100340.69
2018-01-17T22:03:30.624Z,100339.42
2018-01-17T22:06:01.075Z,100322.28
2018-01-17T22:08:32.397Z,100319.05
2018-01-17T22:11:04.438Z,100332.39
2018-01-17T22:13:34.988Z,100327.63
2018-01-17T22:16:06.258Z,100319.11
2018-01-17T22:18:36.803Z,100317.73
2018-01-17T22:21:08.264Z,100307.63
2018-01-17T22:23:40.041Z,100296.56
2018-01-17T22:26:10.481Z,100296.94
2018-01-17T22:28:46.372Z,100302.34
2018-01-17T22:31:17.135Z,100302.28
2018-01-17T22:33:47.697Z,100295.41
2018-01-17T22:36:17.984Z,100297.72
2018-01-17T22:38:48.424Z,100298.53
2018-01-17T22:41:20.701Z,100297.05
2018-01-17T22:43:51.084Z,100294.83
2018-01-17T22:46:21.642Z,100295.36
2018-01-17T22:48:53.566Z,100293.50
2018-01-17T22:51:24.019Z,100285.73
2018-01-17T22:53:54.290Z,100291.50
2018-01-17T22:56:24.858Z,100293.39
2018-01-17T22:58:55.350Z,100298.06
2018-01-17T23:01:26.606Z,100300.00
2018-01-17T23:03:57.203Z,100296.62
2018-01-17T23:06:27.675Z,100297.36
2018-01-17T23:08:58.172Z,100300.42
2018-01-17T23:11:29.987Z,100298.53
2018-01-17T23:14:00.720Z,100296.36
2018-01-17T23:16:31.680Z,100297.58
2018-01-17T23:19:02.268Z,100295.19
2018-01-17T23:21:33.140Z,100287.05
2018-01-17T23:24:03.803Z,100283.83
2018-01-17T23:26:34.304Z,100291.50
2018-01-17T23:29:05.072Z,100282.92
2018-01-17T23:31:35.708Z,100284.30
2018-01-17T23:34:06.022Z,100285.09
2018-01-17T23:36:36.270Z,100275.15
2018-01-17T23:39:07.115Z,100272.82
2018-01-17T23:41:48.800Z,100270.39
2018-01-17T23:44:19.244Z,100249.37
2018-01-17T23:46:50.384Z,100244.72
2018-01-17T23:49:20.843Z,100232.22
2018-01-17T23:51:51.312Z,100231.02
2018-01-17T23:54:22.828Z,100223.81
2018-01-17T23:56:53.626Z,100212.30
2018-01-17T23:59:24.063Z,100218.95
